sensor_id;sensor_type;location;lat;lon;timestamp;P1;durP1;ratioP1;P2;durP2;ratioP2
75352;SDS011;76704;51.574;7.088;2024-02-26T00:02:16;3.92;;;2.83;;
75352;SDS011;76704;51.574;7.088;2024-02-26T00:04:45;6.65;;;2.97;;
75352;SDS011;76704;51.574;7.088;2024-02-26T00:07:11;4.18;;;2.50;;
75352;SDS011;76704;51.574;7.088;2024-02-26T00:09:38;4.88;;;3.05;;
75352;SDS011;76704;51.574;7.088;2024-02-26T00:12:05;6.75;;;2.70;;
75352;SDS011;76704;51.574;7.088;2024-02-26T00:14:33;7.07;;;3.05;;
75352;SDS011;76704;51.574;7.088;2024-02-26T00:17:00;5.57;;;3.17;;
75352;SDS011;76704;51.574;7.088;2024-02-26T00:19:27;6.70;;;3.00;;
75352;SDS011;76704;51.574;7.088;2024-02-26T00:21:54;5.97;;;2.92;;
75352;SDS011;76704;51.574;7.088;2024-02-26T00:24:22;5.30;;;3.00;;
75352;SDS011;76704;51.574;7.088;2024-02-26T00:26:49;5.88;;;3.28;;
75352;SDS011;76704;51.574;7.088;2024-02-26T00:29:19;8.15;;;3.85;;
75352;SDS011;76704;51.574;7.088;2024-02-26T00:31:47;6.03;;;3.42;;
75352;SDS011;76704;51.574;7.088;2024-02-26T00:34:14;4.60;;;2.53;;
75352;SDS011;76704;51.574;7.088;2024-02-26T00:36:41;11.57;;;4.57;;
75352;SDS011;76704;51.574;7.088;2024-02-26T00:39:08;6.88;;;3.38;;
75352;SDS011;76704;51.574;7.088;2024-02-26T00:41:42;6.35;;;2.47;;
75352;SDS011;76704;51.574;7.088;2024-02-26T00:44:09;12.00;;;3.92;;
75352;SDS011;76704;51.574;7.088;2024-02-26T00:46:36;5.60;;;3.28;;
75352;SDS011;76704;51.574;7.088;2024-02-26T00:49:03;5.97;;;3.38;;
75352;SDS011;76704;51.574;7.088;2024-02-26T00:51:30;6.30;;;3.13;;
75352;SDS011;76704;51.574;7.088;2024-02-26T00:53:57;4.65;;;2.70;;
75352;SDS011;76704;51.574;7.088;2024-02-26T00:56:24;6.05;;;3.10;;
75352;SDS011;76704;51.574;7.088;2024-02-26T00:58:51;6.18;;;3.03;;
75352;SDS011;76704;51.574;7.088;2024-02-26T01:01:18;5.78;;;2.90;;
75352;SDS011;76704;51.574;7.088;2024-02-26T01:03:45;9.43;;;3.05;;
75352;SDS011;76704;51.574;7.088;2024-02-26T01:06:12;5.22;;;2.78;;
75352;SDS011;76704;51.574;7.088;2024-02-26T01:08:40;8.68;;;3.00;;
75352;SDS011;76704;51.574;7.088;2024-02-26T01:11:06;5.07;;;3.15;;
75352;SDS011;76704;51.574;7.088;2024-02-26T01:13:34;4.93;;;2.63;;
75352;SDS011;76704;51.574;7.088;2024-02-26T01:16:01;4.72;;;2.85;;
75352;SDS011;76704;51.574;7.088;2024-02-26T01:18:28;7.55;;;3.30;;
75352;SDS011;76704;51.574;7.088;2024-02-26T01:20:56;9.88;;;3.90;;
75352;SDS011;76704;51.574;7.088;2024-02-26T01:23:23;4.07;;;2.50;;
75352;SDS011;76704;51.574;7.088;2024-02-26T01:25:50;3.10;;;2.42;;
75352;SDS011;76704;51.574;7.088;2024-02-26T01:28:17;3.80;;;2.63;;
75352;SDS011;76704;51.574;7.088;2024-02-26T01:30:44;4.22;;;2.72;;
75352;SDS011;76704;51.574;7.088;2024-02-26T01:33:11;2.78;;;2.45;;
75352;SDS011;76704;51.574;7.088;2024-02-26T01:35:39;5.57;;;2.60;;
75352;SDS011;76704;51.574;7.088;2024-02-26T01:38:06;4.90;;;2.58;;
75352;SDS011;76704;51.574;7.088;2024-02-26T01:40:32;4.95;;;2.63;;
75352;SDS011;76704;51.574;7.088;2024-02-26T01:42:59;4.30;;;2.47;;
75352;SDS011;76704;51.574;7.088;2024-02-26T01:45:27;5.10;;;3.10;;
75352;SDS011;76704;51.574;7.088;2024-02-26T01:47:55;3.42;;;2.15;;
75352;SDS011;76704;51.574;7.088;2024-02-26T01:50:23;4.18;;;3.13;;
75352;SDS011;76704;51.574;7.088;2024-02-26T01:52:51;5.95;;;2.40;;
75352;SDS011;76704;51.574;7.088;2024-02-26T01:55:20;3.90;;;2.37;;
75352;SDS011;76704;51.574;7.088;2024-02-26T01:57:50;4.13;;;2.10;;
75352;SDS011;76704;51.574;7.088;2024-02-26T02:00:19;3.50;;;2.30;;
75352;SDS011;76704;51.574;7.088;2024-02-26T02:02:47;8.85;;;2.50;;
75352;SDS011;76704;51.574;7.088;2024-02-26T02:05:16;3.03;;;2.20;;
75352;SDS011;76704;51.574;7.088;2024-02-26T02:07:44;3.00;;;2.20;;
75352;SDS011;76704;51.574;7.088;2024-02-26T02:10:11;3.95;;;2.40;;
75352;SDS011;76704;51.574;7.088;2024-02-26T02:12:39;2.97;;;2.10;;
75352;SDS011;76704;51.574;7.088;2024-02-26T02:15:07;3.90;;;2.28;;
75352;SDS011;76704;51.574;7.088;2024-02-26T02:17:34;9.30;;;3.10;;
75352;SDS011;76704;51.574;7.088;2024-02-26T02:20:02;4.45;;;2.42;;
75352;SDS011;76704;51.574;7.088;2024-02-26T02:22:30;2.47;;;2.00;;
75352;SDS011;76704;51.574;7.088;2024-02-26T02:24:59;3.10;;;2.10;;
75352;SDS011;76704;51.574;7.088;2024-02-26T02:27:27;4.95;;;2.65;;
75352;SDS011;76704;51.574;7.088;2024-02-26T02:29:55;3.78;;;2.85;;
75352;SDS011;76704;51.574;7.088;2024-02-26T02:32:22;2.65;;;2.03;;
75352;SDS011;76704;51.574;7.088;2024-02-26T02:34:51;3.35;;;2.17;;
75352;SDS011;76704;51.574;7.088;2024-02-26T02:37:19;5.80;;;2.47;;
75352;SDS011;76704;51.574;7.088;2024-02-26T02:39:45;4.47;;;2.40;;
75352;SDS011;76704;51.574;7.088;2024-02-26T02:42:12;3.65;;;1.60;;
75352;SDS011;76704;51.574;7.088;2024-02-26T02:44:39;3.97;;;2.17;;
75352;SDS011;76704;51.574;7.088;2024-02-26T02:47:06;5.35;;;2.50;;
75352;SDS011;76704;51.574;7.088;2024-02-26T02:49:33;4.10;;;2.40;;
75352;SDS011;76704;51.574;7.088;2024-02-26T02:52:00;6.70;;;2.55;;
75352;SDS011;76704;51.574;7.088;2024-02-26T02:54:27;3.10;;;2.28;;
75352;SDS011;76704;51.574;7.088;2024-02-26T02:56:54;3.35;;;2.03;;
75352;SDS011;76704;51.574;7.088;2024-02-26T02:59:21;4.32;;;2.10;;
75352;SDS011;76704;51.574;7.088;2024-02-26T03:01:48;3.67;;;1.77;;
75352;SDS011;76704;51.574;7.088;2024-02-26T03:04:15;3.47;;;2.30;;
75352;SDS011;76704;51.574;7.088;2024-02-26T03:06:42;2.90;;;2.13;;
75352;SDS011;76704;51.574;7.088;2024-02-26T03:09:09;2.72;;;1.85;;
75352;SDS011;76704;51.574;7.088;2024-02-26T03:11:36;4.70;;;2.35;;
75352;SDS011;76704;51.574;7.088;2024-02-26T03:14:02;3.25;;;2.13;;
75352;SDS011;76704;51.574;7.088;2024-02-26T03:16:30;2.60;;;1.85;;
75352;SDS011;76704;51.574;7.088;2024-02-26T03:18:57;3.45;;;1.80;;
75352;SDS011;76704;51.574;7.088;2024-02-26T03:21:25;4.13;;;1.92;;
75352;SDS011;76704;51.574;7.088;2024-02-26T03:23:52;2.70;;;1.90;;
75352;SDS011;76704;51.574;7.088;2024-02-26T03:26:20;1.95;;;1.42;;
75352;SDS011;76704;51.574;7.088;2024-02-26T03:28:48;3.13;;;2.00;;
75352;SDS011;76704;51.574;7.088;2024-02-26T03:31:14;3.03;;;1.75;;
75352;SDS011;76704;51.574;7.088;2024-02-26T03:33:41;5.07;;;1.70;;
75352;SDS011;76704;51.574;7.088;2024-02-26T03:36:08;2.67;;;2.00;;
75352;SDS011;76704;51.574;7.088;2024-02-26T03:38:36;2.05;;;1.40;;
75352;SDS011;76704;51.574;7.088;2024-02-26T03:41:04;2.00;;;1.75;;
75352;SDS011;76704;51.574;7.088;2024-02-26T03:43:30;2.88;;;1.50;;
75352;SDS011;76704;51.574;7.088;2024-02-26T03:45:58;4.85;;;1.60;;
75352;SDS011;76704;51.574;7.088;2024-02-26T03:48:25;2.63;;;1.90;;
75352;SDS011;76704;51.574;7.088;2024-02-26T03:50:52;3.35;;;2.00;;
75352;SDS011;76704;51.574;7.088;2024-02-26T03:53:19;3.63;;;2.00;;
75352;SDS011;76704;51.574;7.088;2024-02-26T03:55:46;3.28;;;2.03;;
75352;SDS011;76704;51.574;7.088;2024-02-26T03:58:13;4.53;;;2.00;;
75352;SDS011;76704;51.574;7.088;2024-02-26T04:00:42;2.58;;;1.92;;
75352;SDS011;76704;51.574;7.088;2024-02-26T04:03:09;3.30;;;2.00;;
75352;SDS011;76704;51.574;7.088;2024-02-26T04:05:36;4.00;;;2.53;;
75352;SDS011;76704;51.574;7.088;2024-02-26T04:08:04;4.30;;;2.20;;
75352;SDS011;76704;51.574;7.088;2024-02-26T04:10:33;3.97;;;2.22;;
75352;SDS011;76704;51.574;7.088;2024-02-26T04:13:06;2.55;;;2.30;;
75352;SDS011;76704;51.574;7.088;2024-02-26T04:15:34;2.13;;;1.83;;
75352;SDS011;76704;51.574;7.088;2024-02-26T04:18:01;2.35;;;2.15;;
75352;SDS011;76704;51.574;7.088;2024-02-26T04:20:29;2.63;;;2.13;;
75352;SDS011;76704;51.574;7.088;2024-02-26T04:22:57;2.10;;;1.48;;
75352;SDS011;76704;51.574;7.088;2024-02-26T04:25:24;3.78;;;2.10;;
75352;SDS011;76704;51.574;7.088;2024-02-26T04:27:51;2.75;;;2.00;;
75352;SDS011;76704;51.574;7.088;2024-02-26T04:30:18;3.83;;;2.03;;
75352;SDS011;76704;51.574;7.088;2024-02-26T04:32:45;2.85;;;2.00;;
75352;SDS011;76704;51.574;7.088;2024-02-26T04:35:12;2.40;;;1.80;;
75352;SDS011;76704;51.574;7.088;2024-02-26T04:37:39;2.75;;;1.98;;
75352;SDS011;76704;51.574;7.088;2024-02-26T04:40:06;3.45;;;2.40;;
75352;SDS011;76704;51.574;7.088;2024-02-26T04:42:34;6.68;;;2.20;;
75352;SDS011;76704;51.574;7.088;2024-02-26T04:45:02;3.95;;;1.98;;
75352;SDS011;76704;51.574;7.088;2024-02-26T04:47:29;3.10;;;1.83;;
75352;SDS011;76704;51.574;7.088;2024-02-26T04:49:56;3.38;;;1.98;;
75352;SDS011;76704;51.574;7.088;2024-02-26T04:52:24;2.75;;;1.75;;
75352;SDS011;76704;51.574;7.088;2024-02-26T04:54:51;2.65;;;1.73;;
75352;SDS011;76704;51.574;7.088;2024-02-26T04:57:18;2.22;;;1.95;;
75352;SDS011;76704;51.574;7.088;2024-02-26T04:59:45;3.15;;;2.03;;
75352;SDS011;76704;51.574;7.088;2024-02-26T05:02:13;1.83;;;1.70;;
75352;SDS011;76704;51.574;7.088;2024-02-26T05:04:40;3.85;;;1.48;;
75352;SDS011;76704;51.574;7.088;2024-02-26T05:07:07;3.47;;;2.00;;
75352;SDS011;76704;51.574;7.088;2024-02-26T05:09:35;3.58;;;1.67;;
75352;SDS011;76704;51.574;7.088;2024-02-26T05:12:01;5.22;;;2.47;;
75352;SDS011;76704;51.574;7.088;2024-02-26T05:14:28;2.50;;;1.83;;
75352;SDS011;76704;51.574;7.088;2024-02-26T05:16:55;5.65;;;2.13;;
75352;SDS011;76704;51.574;7.088;2024-02-26T05:19:22;4.30;;;2.40;;
75352;SDS011;76704;51.574;7.088;2024-02-26T05:21:50;4.40;;;2.30;;
75352;SDS011;76704;51.574;7.088;2024-02-26T05:24:17;3.25;;;2.40;;
75352;SDS011;76704;51.574;7.088;2024-02-26T05:26:45;3.83;;;2.17;;
75352;SDS011;76704;51.574;7.088;2024-02-26T05:29:12;3.10;;;2.10;;
75352;SDS011;76704;51.574;7.088;2024-02-26T05:31:39;4.60;;;2.65;;
75352;SDS011;76704;51.574;7.088;2024-02-26T05:34:06;4.20;;;2.35;;
75352;SDS011;76704;51.574;7.088;2024-02-26T05:36:33;4.63;;;2.28;;
75352;SDS011;76704;51.574;7.088;2024-02-26T05:39:00;6.18;;;2.38;;
75352;SDS011;76704;51.574;7.088;2024-02-26T05:41:27;2.92;;;2.40;;
75352;SDS011;76704;51.574;7.088;2024-02-26T05:43:54;3.85;;;2.10;;
75352;SDS011;76704;51.574;7.088;2024-02-26T05:46:22;2.80;;;2.25;;
75352;SDS011;76704;51.574;7.088;2024-02-26T05:48:50;3.15;;;2.35;;
75352;SDS011;76704;51.574;7.088;2024-02-26T05:51:18;4.43;;;2.13;;
75352;SDS011;76704;51.574;7.088;2024-02-26T05:53:45;3.92;;;2.58;;
75352;SDS011;76704;51.574;7.088;2024-02-26T05:56:14;7.90;;;2.28;;
75352;SDS011;76704;51.574;7.088;2024-02-26T05:58:41;3.08;;;2.08;;
75352;SDS011;76704;51.574;7.088;2024-02-26T06:01:08;3.22;;;2.50;;
75352;SDS011;76704;51.574;7.088;2024-02-26T06:03:34;3.10;;;2.20;;
75352;SDS011;76704;51.574;7.088;2024-02-26T06:06:01;3.72;;;2.72;;
75352;SDS011;76704;51.574;7.088;2024-02-26T06:08:29;2.88;;;2.05;;
75352;SDS011;76704;51.574;7.088;2024-02-26T06:10:55;4.88;;;2.33;;
75352;SDS011;76704;51.574;7.088;2024-02-26T06:13:22;3.88;;;2.13;;
75352;SDS011;76704;51.574;7.088;2024-02-26T06:15:49;4.13;;;2.00;;
75352;SDS011;76704;51.574;7.088;2024-02-26T06:18:16;2.90;;;2.20;;
75352;SDS011;76704;51.574;7.088;2024-02-26T06:20:43;3.70;;;2.00;;
75352;SDS011;76704;51.574;7.088;2024-02-26T06:23:11;4.10;;;2.50;;
75352;SDS011;76704;51.574;7.088;2024-02-26T06:25:38;5.07;;;2.15;;
75352;SDS011;76704;51.574;7.088;2024-02-26T06:28:05;3.85;;;2.30;;
75352;SDS011;76704;51.574;7.088;2024-02-26T06:30:32;2.30;;;2.10;;
75352;SDS011;76704;51.574;7.088;2024-02-26T06:32:59;4.15;;;2.38;;
75352;SDS011;76704;51.574;7.088;2024-02-26T06:35:27;3.42;;;2.72;;
75352;SDS011;76704;51.574;7.088;2024-02-26T06:37:53;4.43;;;2.30;;
75352;SDS011;76704;51.574;7.088;2024-02-26T06:40:21;3.67;;;2.05;;
75352;SDS011;76704;51.574;7.088;2024-02-26T06:42:48;3.63;;;2.47;;
75352;SDS011;76704;51.574;7.088;2024-02-26T06:45:17;3.70;;;1.95;;
75352;SDS011;76704;51.574;7.088;2024-02-26T06:47:46;3.60;;;2.20;;
75352;SDS011;76704;51.574;7.088;2024-02-26T06:50:13;3.58;;;2.25;;
75352;SDS011;76704;51.574;7.088;2024-02-26T06:52:40;3.90;;;2.35;;
75352;SDS011;76704;51.574;7.088;2024-02-26T06:55:07;2.95;;;2.15;;
75352;SDS011;76704;51.574;7.088;2024-02-26T06:57:35;4.90;;;2.17;;
75352;SDS011;76704;51.574;7.088;2024-02-26T07:00:02;3.90;;;2.45;;
75352;SDS011;76704;51.574;7.088;2024-02-26T07:02:31;4.93;;;2.60;;
75352;SDS011;76704;51.574;7.088;2024-02-26T07:04:58;3.70;;;2.40;;
75352;SDS011;76704;51.574;7.088;2024-02-26T07:07:25;4.63;;;2.63;;
75352;SDS011;76704;51.574;7.088;2024-02-26T07:09:52;4.28;;;2.45;;
75352;SDS011;76704;51.574;7.088;2024-02-26T07:12:19;3.38;;;2.20;;
75352;SDS011;76704;51.574;7.088;2024-02-26T07:14:48;3.40;;;2.50;;
75352;SDS011;76704;51.574;7.088;2024-02-26T07:17:16;4.68;;;2.35;;
75352;SDS011;76704;51.574;7.088;2024-02-26T07:19:43;5.03;;;2.45;;
75352;SDS011;76704;51.574;7.088;2024-02-26T07:22:10;5.72;;;2.35;;
75352;SDS011;76704;51.574;7.088;2024-02-26T07:24:37;3.22;;;2.13;;
75352;SDS011;76704;51.574;7.088;2024-02-26T07:27:04;3.22;;;2.10;;
75352;SDS011;76704;51.574;7.088;2024-02-26T07:29:31;3.53;;;2.53;;
75352;SDS011;76704;51.574;7.088;2024-02-26T07:31:58;4.78;;;2.88;;
75352;SDS011;76704;51.574;7.088;2024-02-26T07:34:25;3.05;;;2.22;;
75352;SDS011;76704;51.574;7.088;2024-02-26T07:36:56;7.57;;;2.42;;
75352;SDS011;76704;51.574;7.088;2024-02-26T07:39:23;3.67;;;2.50;;
75352;SDS011;76704;51.574;7.088;2024-02-26T07:41:50;3.35;;;2.10;;
75352;SDS011;76704;51.574;7.088;2024-02-26T07:44:20;4.50;;;2.47;;
75352;SDS011;76704;51.574;7.088;2024-02-26T07:46:47;4.15;;;1.92;;
75352;SDS011;76704;51.574;7.088;2024-02-26T07:49:14;2.65;;;2.05;;
75352;SDS011;76704;51.574;7.088;2024-02-26T07:51:41;4.30;;;2.05;;
75352;SDS011;76704;51.574;7.088;2024-02-26T07:54:08;3.40;;;2.15;;
75352;SDS011;76704;51.574;7.088;2024-02-26T07:56:35;4.78;;;2.08;;
75352;SDS011;76704;51.574;7.088;2024-02-26T07:59:03;5.20;;;2.45;;
75352;SDS011;76704;51.574;7.088;2024-02-26T08:01:30;2.58;;;1.83;;
75352;SDS011;76704;51.574;7.088;2024-02-26T08:03:57;2.72;;;2.20;;
75352;SDS011;76704;51.574;7.088;2024-02-26T08:06:24;2.65;;;2.03;;
75352;SDS011;76704;51.574;7.088;2024-02-26T08:08:52;3.45;;;2.20;;
75352;SDS011;76704;51.574;7.088;2024-02-26T08:11:22;3.13;;;2.08;;
75352;SDS011;76704;51.574;7.088;2024-02-26T08:13:49;3.58;;;2.33;;
75352;SDS011;76704;51.574;7.088;2024-02-26T08:16:16;2.95;;;1.95;;
75352;SDS011;76704;51.574;7.088;2024-02-26T08:18:44;4.63;;;2.45;;
75352;SDS011;76704;51.574;7.088;2024-02-26T08:21:11;3.30;;;2.15;;
75352;SDS011;76704;51.574;7.088;2024-02-26T08:23:38;4.60;;;1.90;;
75352;SDS011;76704;51.574;7.088;2024-02-26T08:26:05;8.05;;;2.63;;
75352;SDS011;76704;51.574;7.088;2024-02-26T08:28:33;5.88;;;2.65;;
75352;SDS011;76704;51.574;7.088;2024-02-26T08:31:00;3.53;;;2.20;;
75352;SDS011;76704;51.574;7.088;2024-02-26T08:33:27;2.92;;;1.98;;
75352;SDS011;76704;51.574;7.088;2024-02-26T08:35:55;7.28;;;2.50;;
75352;SDS011;76704;51.574;7.088;2024-02-26T08:38:22;3.63;;;2.20;;
75352;SDS011;76704;51.574;7.088;2024-02-26T08:40:49;2.60;;;2.30;;
75352;SDS011;76704;51.574;7.088;2024-02-26T08:43:15;2.75;;;2.00;;
75352;SDS011;76704;51.574;7.088;2024-02-26T08:45:42;4.75;;;2.30;;
75352;SDS011;76704;51.574;7.088;2024-02-26T08:48:09;2.50;;;2.20;;
75352;SDS011;76704;51.574;7.088;2024-02-26T08:50:37;5.47;;;2.58;;
75352;SDS011;76704;51.574;7.088;2024-02-26T08:53:03;4.53;;;2.45;;
75352;SDS011;76704;51.574;7.088;2024-02-26T08:55:33;4.20;;;2.20;;
75352;SDS011;76704;51.574;7.088;2024-02-26T08:58:00;3.15;;;2.50;;
75352;SDS011;76704;51.574;7.088;2024-02-26T09:00:27;4.75;;;2.80;;
75352;SDS011;76704;51.574;7.088;2024-02-26T09:02:54;4.97;;;1.98;;
75352;SDS011;76704;51.574;7.088;2024-02-26T09:05:21;3.17;;;2.10;;
75352;SDS011;76704;51.574;7.088;2024-02-26T09:07:48;4.03;;;2.28;;
75352;SDS011;76704;51.574;7.088;2024-02-26T09:10:14;3.35;;;1.98;;
75352;SDS011;76704;51.574;7.088;2024-02-26T09:12:41;3.90;;;2.47;;
75352;SDS011;76704;51.574;7.088;2024-02-26T09:15:09;2.83;;;2.10;;
75352;SDS011;76704;51.574;7.088;2024-02-26T09:17:36;2.40;;;1.70;;
75352;SDS011;76704;51.574;7.088;2024-02-26T09:20:03;3.90;;;2.17;;
75352;SDS011;76704;51.574;7.088;2024-02-26T09:22:32;2.85;;;2.20;;
75352;SDS011;76704;51.574;7.088;2024-02-26T09:24:59;3.60;;;2.30;;
75352;SDS011;76704;51.574;7.088;2024-02-26T09:27:26;3.53;;;2.47;;
75352;SDS011;76704;51.574;7.088;2024-02-26T09:29:53;2.92;;;1.88;;
75352;SDS011;76704;51.574;7.088;2024-02-26T09:32:20;2.75;;;2.15;;
75352;SDS011;76704;51.574;7.088;2024-02-26T09:34:47;2.70;;;1.90;;
75352;SDS011;76704;51.574;7.088;2024-02-26T09:37:14;2.38;;;1.73;;
75352;SDS011;76704;51.574;7.088;2024-02-26T09:39:47;3.83;;;2.28;;
75352;SDS011;76704;51.574;7.088;2024-02-26T09:42:14;3.58;;;2.22;;
75352;SDS011;76704;51.574;7.088;2024-02-26T09:44:46;4.00;;;2.65;;
75352;SDS011;76704;51.574;7.088;2024-02-26T09:47:16;3.92;;;2.30;;
75352;SDS011;76704;51.574;7.088;2024-02-26T09:49:43;3.72;;;2.55;;
75352;SDS011;76704;51.574;7.088;2024-02-26T09:52:12;2.95;;;2.13;;
75352;SDS011;76704;51.574;7.088;2024-02-26T09:54:42;5.00;;;2.40;;
75352;SDS011;76704;51.574;7.088;2024-02-26T09:57:13;4.57;;;2.40;;
75352;SDS011;76704;51.574;7.088;2024-02-26T09:59:44;2.47;;;1.85;;
75352;SDS011;76704;51.574;7.088;2024-02-26T10:02:12;3.80;;;2.55;;
75352;SDS011;76704;51.574;7.088;2024-02-26T10:04:40;3.28;;;2.40;;
75352;SDS011;76704;51.574;7.088;2024-02-26T10:07:12;3.80;;;2.30;;
75352;SDS011;76704;51.574;7.088;2024-02-26T10:09:40;3.33;;;2.17;;
75352;SDS011;76704;51.574;7.088;2024-02-26T10:12:08;3.83;;;2.20;;
75352;SDS011;76704;51.574;7.088;2024-02-26T10:14:38;3.58;;;2.40;;
75352;SDS011;76704;51.574;7.088;2024-02-26T10:17:07;5.78;;;2.30;;
75352;SDS011;76704;51.574;7.088;2024-02-26T10:19:35;5.45;;;2.60;;
75352;SDS011;76704;51.574;7.088;2024-02-26T10:22:05;6.93;;;3.25;;
75352;SDS011;76704;51.574;7.088;2024-02-26T10:24:32;5.20;;;2.85;;
75352;SDS011;76704;51.574;7.088;2024-02-26T10:27:01;4.83;;;2.67;;
75352;SDS011;76704;51.574;7.088;2024-02-26T10:29:29;6.85;;;2.65;;
75352;SDS011;76704;51.574;7.088;2024-02-26T10:31:56;7.15;;;2.50;;
75352;SDS011;76704;51.574;7.088;2024-02-26T10:34:23;5.13;;;2.90;;
75352;SDS011;76704;51.574;7.088;2024-02-26T10:36:51;2.92;;;2.55;;
75352;SDS011;76704;51.574;7.088;2024-02-26T10:39:20;5.03;;;3.00;;
75352;SDS011;76704;51.574;7.088;2024-02-26T10:41:48;4.00;;;2.45;;
75352;SDS011;76704;51.574;7.088;2024-02-26T10:44:15;7.03;;;3.08;;
75352;SDS011;76704;51.574;7.088;2024-02-26T10:46:46;5.25;;;3.10;;
75352;SDS011;76704;51.574;7.088;2024-02-26T10:49:16;4.38;;;2.72;;
75352;SDS011;76704;51.574;7.088;2024-02-26T10:51:51;5.72;;;3.00;;
75352;SDS011;76704;51.574;7.088;2024-02-26T10:54:23;5.25;;;2.97;;
75352;SDS011;76704;51.574;7.088;2024-02-26T10:56:55;5.90;;;3.90;;
75352;SDS011;76704;51.574;7.088;2024-02-26T10:59:23;5.15;;;2.97;;
75352;SDS011;76704;51.574;7.088;2024-02-26T11:01:50;6.72;;;3.40;;
75352;SDS011;76704;51.574;7.088;2024-02-26T11:04:18;5.22;;;3.42;;
75352;SDS011;76704;51.574;7.088;2024-02-26T11:06:46;7.22;;;3.38;;
75352;SDS011;76704;51.574;7.088;2024-02-26T11:09:16;5.35;;;3.55;;
75352;SDS011;76704;51.574;7.088;2024-02-26T11:11:45;6.75;;;4.15;;
75352;SDS011;76704;51.574;7.088;2024-02-26T11:14:13;6.03;;;3.40;;
75352;SDS011;76704;51.574;7.088;2024-02-26T11:16:41;8.73;;;3.90;;
75352;SDS011;76704;51.574;7.088;2024-02-26T11:19:09;7.32;;;3.70;;
75352;SDS011;76704;51.574;7.088;2024-02-26T11:21:38;5.72;;;4.10;;
75352;SDS011;76704;51.574;7.088;2024-02-26T11:24:08;8.15;;;4.18;;
75352;SDS011;76704;51.574;7.088;2024-02-26T11:26:42;7.90;;;4.63;;
75352;SDS011;76704;51.574;7.088;2024-02-26T11:29:16;8.73;;;4.68;;
75352;SDS011;76704;51.574;7.088;2024-02-26T11:31:46;10.93;;;5.30;;
75352;SDS011;76704;51.574;7.088;2024-02-26T11:34:13;9.18;;;5.00;;
75352;SDS011;76704;51.574;7.088;2024-02-26T11:36:41;9.02;;;4.57;;
75352;SDS011;76704;51.574;7.088;2024-02-26T11:39:10;9.38;;;4.72;;
75352;SDS011;76704;51.574;7.088;2024-02-26T11:41:39;7.05;;;4.32;;
75352;SDS011;76704;51.574;7.088;2024-02-26T11:44:06;9.32;;;4.85;;
75352;SDS011;76704;51.574;7.088;2024-02-26T11:46:42;8.00;;;4.32;;
75352;SDS011;76704;51.574;7.088;2024-02-26T11:49:44;8.88;;;6.43;;
75352;SDS011;76704;51.574;7.088;2024-02-26T11:52:05;8.48;;;5.32;;
75352;SDS011;76704;51.574;7.088;2024-02-26T11:54:52;9.10;;;5.40;;
75352;SDS011;76704;51.574;7.088;2024-02-26T11:57:30;7.93;;;4.97;;
75352;SDS011;76704;51.574;7.088;2024-02-26T12:02:40;12.68;;;7.18;;
75352;SDS011;76704;51.574;7.088;2024-02-26T12:05:16;7.22;;;5.05;;
75352;SDS011;76704;51.574;7.088;2024-02-26T12:07:47;9.63;;;6.00;;
75352;SDS011;76704;51.574;7.088;2024-02-26T12:10:36;12.75;;;6.45;;
75352;SDS011;76704;51.574;7.088;2024-02-26T12:15:44;9.25;;;5.40;;
75352;SDS011;76704;51.574;7.088;2024-02-26T12:18:16;12.55;;;6.15;;
75352;SDS011;76704;51.574;7.088;2024-02-26T12:20:44;9.23;;;5.50;;
75352;SDS011;76704;51.574;7.088;2024-02-26T12:23:17;9.00;;;5.85;;
75352;SDS011;76704;51.574;7.088;2024-02-26T12:25:44;11.00;;;5.55;;
75352;SDS011;76704;51.574;7.088;2024-02-26T12:28:15;7.50;;;4.82;;
75352;SDS011;76704;51.574;7.088;2024-02-26T12:30:42;9.35;;;5.18;;
75352;SDS011;76704;51.574;7.088;2024-02-26T12:33:09;8.77;;;5.32;;
75352;SDS011;76704;51.574;7.088;2024-02-26T12:35:36;11.27;;;5.07;;
75352;SDS011;76704;51.574;7.088;2024-02-26T12:38:03;8.13;;;4.70;;
75352;SDS011;76704;51.574;7.088;2024-02-26T12:40:30;8.38;;;5.13;;
75352;SDS011;76704;51.574;7.088;2024-02-26T12:42:58;9.43;;;4.80;;
75352;SDS011;76704;51.574;7.088;2024-02-26T12:45:25;8.43;;;5.38;;
75352;SDS011;76704;51.574;7.088;2024-02-26T12:47:53;6.80;;;4.90;;
75352;SDS011;76704;51.574;7.088;2024-02-26T12:50:20;8.80;;;5.03;;
75352;SDS011;76704;51.574;7.088;2024-02-26T12:52:47;10.27;;;5.22;;
75352;SDS011;76704;51.574;7.088;2024-02-26T12:55:14;8.70;;;4.15;;
75352;SDS011;76704;51.574;7.088;2024-02-26T12:57:46;9.45;;;5.43;;
75352;SDS011;76704;51.574;7.088;2024-02-26T13:00:16;8.90;;;4.43;;
75352;SDS011;76704;51.574;7.088;2024-02-26T13:02:49;6.78;;;3.95;;
75352;SDS011;76704;51.574;7.088;2024-02-26T13:05:17;10.23;;;4.53;;
75352;SDS011;76704;51.574;7.088;2024-02-26T13:07:46;6.35;;;4.40;;
75352;SDS011;76704;51.574;7.088;2024-02-26T13:10:13;6.38;;;4.07;;
75352;SDS011;76704;51.574;7.088;2024-02-26T13:12:48;6.85;;;4.43;;
75352;SDS011;76704;51.574;7.088;2024-02-26T13:15:19;5.88;;;3.83;;
75352;SDS011;76704;51.574;7.088;2024-02-26T13:17:48;6.65;;;3.65;;
75352;SDS011;76704;51.574;7.088;2024-02-26T13:20:28;5.05;;;3.33;;
75352;SDS011;76704;51.574;7.088;2024-02-26T13:23:03;5.47;;;3.00;;
75352;SDS011;76704;51.574;7.088;2024-02-26T13:25:33;4.22;;;3.38;;
75352;SDS011;76704;51.574;7.088;2024-02-26T13:28:15;4.00;;;3.50;;
75352;SDS011;76704;51.574;7.088;2024-02-26T13:30:54;5.22;;;3.47;;
75352;SDS011;76704;51.574;7.088;2024-02-26T13:33:24;8.77;;;3.58;;
75352;SDS011;76704;51.574;7.088;2024-02-26T13:35:53;5.70;;;3.42;;
75352;SDS011;76704;51.574;7.088;2024-02-26T13:38:21;7.22;;;4.18;;
75352;SDS011;76704;51.574;7.088;2024-02-26T13:40:49;5.15;;;3.38;;
75352;SDS011;76704;51.574;7.088;2024-02-26T13:43:17;5.63;;;3.22;;
75352;SDS011;76704;51.574;7.088;2024-02-26T13:45:44;5.15;;;3.55;;
75352;SDS011;76704;51.574;7.088;2024-02-26T13:48:12;6.60;;;3.20;;
75352;SDS011;76704;51.574;7.088;2024-02-26T13:50:40;4.05;;;3.30;;
75352;SDS011;76704;51.574;7.088;2024-02-26T13:53:10;3.38;;;2.95;;
75352;SDS011;76704;51.574;7.088;2024-02-26T13:55:38;4.57;;;3.10;;
75352;SDS011;76704;51.574;7.088;2024-02-26T13:58:10;4.22;;;3.28;;
75352;SDS011;76704;51.574;7.088;2024-02-26T14:00:39;6.43;;;3.67;;
75352;SDS011;76704;51.574;7.088;2024-02-26T14:03:09;5.13;;;3.50;;
75352;SDS011;76704;51.574;7.088;2024-02-26T14:05:36;5.45;;;3.30;;
75352;SDS011;76704;51.574;7.088;2024-02-26T14:08:03;4.47;;;2.92;;
75352;SDS011;76704;51.574;7.088;2024-02-26T14:10:31;5.30;;;2.90;;
75352;SDS011;76704;51.574;7.088;2024-02-26T14:12:58;4.03;;;3.00;;
75352;SDS011;76704;51.574;7.088;2024-02-26T14:15:26;6.07;;;3.30;;
75352;SDS011;76704;51.574;7.088;2024-02-26T14:17:53;5.47;;;3.05;;
75352;SDS011;76704;51.574;7.088;2024-02-26T14:22:50;8.07;;;3.40;;
75352;SDS011;76704;51.574;7.088;2024-02-26T14:25:21;4.93;;;3.40;;
75352;SDS011;76704;51.574;7.088;2024-02-26T14:27:48;5.90;;;3.08;;
75352;SDS011;76704;51.574;7.088;2024-02-26T14:30:15;4.07;;;2.65;;
75352;SDS011;76704;51.574;7.088;2024-02-26T14:32:43;5.10;;;3.25;;
75352;SDS011;76704;51.574;7.088;2024-02-26T14:35:10;5.45;;;2.90;;
75352;SDS011;76704;51.574;7.088;2024-02-26T14:37:43;4.22;;;2.92;;
75352;SDS011;76704;51.574;7.088;2024-02-26T14:40:14;5.40;;;2.75;;
75352;SDS011;76704;51.574;7.088;2024-02-26T14:42:42;6.55;;;3.33;;
75352;SDS011;76704;51.574;7.088;2024-02-26T14:45:09;4.50;;;2.97;;
75352;SDS011;76704;51.574;7.088;2024-02-26T14:47:38;5.95;;;3.45;;
75352;SDS011;76704;51.574;7.088;2024-02-26T14:50:06;4.70;;;3.22;;
75352;SDS011;76704;51.574;7.088;2024-02-26T14:52:33;4.93;;;2.63;;
75352;SDS011;76704;51.574;7.088;2024-02-26T14:55:00;3.70;;;2.40;;
75352;SDS011;76704;51.574;7.088;2024-02-26T14:57:27;5.30;;;2.80;;
75352;SDS011;76704;51.574;7.088;2024-02-26T14:59:54;17.23;;;9.48;;
75352;SDS011;76704;51.574;7.088;2024-02-26T15:02:22;7.47;;;3.42;;